sensor_id;sensor_type;location;lat;lon;timestamp;P1;durP1;ratioP1;P2;durP2;ratioP2
46505;SDS011;32220;49.808;9.968;2022-10-03T08:20:23;6.73;;;4.53;;
46505;SDS011;32220;49.808;9.968;2022-10-03T08:23:08;4.97;;;4.30;;
46505;SDS011;32220;49.808;9.968;2022-10-03T08:25:52;4.93;;;3.07;;
46505;SDS011;32220;49.808;9.968;2022-10-03T08:28:40;7.30;;;3.37;;
46505;SDS011;32220;49.808;9.968;2022-10-03T08:34:38;6.10;;;2.37;;
46505;SDS011;32220;49.808;9.968;2022-10-03T08:44:01;3.73;;;2.50;;
46505;SDS011;32220;49.808;9.968;2022-10-03T08:47:23;4.90;;;2.50;;
46505;SDS011;32220;49.808;9.968;2022-10-03T08:56:00;4.10;;;2.30;;
46505;SDS011;32220;49.808;9.968;2022-10-03T09:01:39;5.27;;;2.27;;
46505;SDS011;32220;49.808;9.968;2022-10-03T09:07:41;6.47;;;2.60;;
46505;SDS011;32220;49.808;9.968;2022-10-03T09:10:32;5.13;;;2.33;;
46505;SDS011;32220;49.808;9.968;2022-10-03T09:13:23;4.07;;;2.20;;
46505;SDS011;32220;49.808;9.968;2022-10-03T09:16:23;4.73;;;2.30;;
46505;SDS011;32220;49.808;9.968;2022-10-03T09:19:12;4.17;;;2.17;;
46505;SDS011;32220;49.808;9.968;2022-10-03T09:22:04;5.00;;;2.23;;
46505;SDS011;32220;49.808;9.968;2022-10-03T09:25:00;4.67;;;2.33;;
46505;SDS011;32220;49.808;9.968;2022-10-03T09:27:42;5.33;;;2.33;;
46505;SDS011;32220;49.808;9.968;2022-10-03T09:30:49;4.07;;;2.13;;
46505;SDS011;32220;49.808;9.968;2022-10-03T09:36:33;5.47;;;2.00;;
46505;SDS011;32220;49.808;9.968;2022-10-03T09:39:30;5.43;;;2.30;;
46505;SDS011;32220;49.808;9.968;2022-10-03T09:42:30;3.90;;;2.23;;
46505;SDS011;32220;49.808;9.968;2022-10-03T10:00:26;3.10;;;1.57;;
46505;SDS011;32220;49.808;9.968;2022-10-03T10:06:16;4.47;;;1.77;;
46505;SDS011;32220;49.808;9.968;2022-10-03T10:12:15;2.93;;;1.53;;
46505;SDS011;32220;49.808;9.968;2022-10-03T10:21:41;4.57;;;1.57;;
46505;SDS011;32220;49.808;9.968;2022-10-03T10:28:00;2.80;;;1.40;;
46505;SDS011;32220;49.808;9.968;2022-10-03T10:31:01;2.87;;;1.30;;
46505;SDS011;32220;49.808;9.968;2022-10-03T10:34:16;2.50;;;1.40;;
46505;SDS011;32220;49.808;9.968;2022-10-03T10:43:57;1.80;;;1.30;;
46505;SDS011;32220;49.808;9.968;2022-10-03T10:47:04;3.07;;;1.50;;
46505;SDS011;32220;49.808;9.968;2022-10-03T10:52:49;2.93;;;1.60;;
46505;SDS011;32220;49.808;9.968;2022-10-03T10:56:13;2.23;;;1.20;;
46505;SDS011;32220;49.808;9.968;2022-10-03T11:02:14;2.80;;;1.10;;
46505;SDS011;32220;49.808;9.968;2022-10-03T11:14:58;2.40;;;1.20;;
46505;SDS011;32220;49.808;9.968;2022-10-03T11:18:00;1.33;;;1.10;;
46505;SDS011;32220;49.808;9.968;2022-10-03T11:26:52;2.47;;;1.30;;
46505;SDS011;32220;49.808;9.968;2022-10-03T11:30:02;4.13;;;1.40;;
46505;SDS011;32220;49.808;9.968;2022-10-03T11:38:58;1.50;;;1.13;;
46505;SDS011;32220;49.808;9.968;2022-10-03T11:41:46;3.93;;;1.50;;
46505;SDS011;32220;49.808;9.968;2022-10-03T11:44:21;3.67;;;1.17;;
46505;SDS011;32220;49.808;9.968;2022-10-03T11:46:57;2.90;;;1.23;;
46505;SDS011;32220;49.808;9.968;2022-10-03T11:49:54;2.23;;;1.10;;
46505;SDS011;32220;49.808;9.968;2022-10-03T11:52:40;2.20;;;1.23;;
46505;SDS011;32220;49.808;9.968;2022-10-03T11:55:19;3.03;;;1.00;;
46505;SDS011;32220;49.808;9.968;2022-10-03T11:58:03;2.67;;;1.30;;
46505;SDS011;32220;49.808;9.968;2022-10-03T12:00:43;1.53;;;1.40;;
46505;SDS011;32220;49.808;9.968;2022-10-03T12:03:20;3.07;;;1.47;;
46505;SDS011;32220;49.808;9.968;2022-10-03T12:05:55;2.30;;;1.10;;
46505;SDS011;32220;49.808;9.968;2022-10-03T12:08:40;2.33;;;1.07;;
46505;SDS011;32220;49.808;9.968;2022-10-03T12:11:22;2.13;;;1.23;;
46505;SDS011;32220;49.808;9.968;2022-10-03T12:14:01;2.30;;;1.10;;
46505;SDS011;32220;49.808;9.968;2022-10-03T12:16:44;2.10;;;1.00;;
46505;SDS011;32220;49.808;9.968;2022-10-03T12:19:28;2.40;;;0.93;;
46505;SDS011;32220;49.808;9.968;2022-10-03T12:22:02;2.13;;;0.90;;
46505;SDS011;32220;49.808;9.968;2022-10-03T12:24:39;2.10;;;0.93;;
46505;SDS011;32220;49.808;9.968;2022-10-03T12:27:12;2.27;;;0.97;;
46505;SDS011;32220;49.808;9.968;2022-10-03T12:29:51;1.73;;;1.13;;
46505;SDS011;32220;49.808;9.968;2022-10-03T12:32:25;2.17;;;0.70;;
46505;SDS011;32220;49.808;9.968;2022-10-03T12:35:03;3.00;;;0.90;;
46505;SDS011;32220;49.808;9.968;2022-10-03T12:37:51;4.23;;;1.37;;
46505;SDS011;32220;49.808;9.968;2022-10-03T12:40:30;2.00;;;1.13;;
46505;SDS011;32220;49.808;9.968;2022-10-03T12:43:02;2.93;;;1.00;;
46505;SDS011;32220;49.808;9.968;2022-10-03T12:45:38;2.17;;;0.97;;
46505;SDS011;32220;49.808;9.968;2022-10-03T12:48:18;3.07;;;0.90;;
46505;SDS011;32220;49.808;9.968;2022-10-03T12:51:01;2.33;;;0.90;;
46505;SDS011;32220;49.808;9.968;2022-10-03T12:53:39;2.27;;;1.13;;
46505;SDS011;32220;49.808;9.968;2022-10-03T12:56:17;2.63;;;0.87;;
46505;SDS011;32220;49.808;9.968;2022-10-03T12:58:53;1.77;;;1.03;;
46505;SDS011;32220;49.808;9.968;2022-10-03T13:01:41;1.93;;;0.80;;
46505;SDS011;32220;49.808;9.968;2022-10-03T13:04:22;2.23;;;0.97;;
46505;SDS011;32220;49.808;9.968;2022-10-03T13:07:03;2.67;;;1.00;;
46505;SDS011;32220;49.808;9.968;2022-10-03T13:09:56;2.53;;;1.07;;
46505;SDS011;32220;49.808;9.968;2022-10-03T13:12:33;2.50;;;0.90;;
46505;SDS011;32220;49.808;9.968;2022-10-03T13:18:09;4.17;;;1.20;;
46505;SDS011;32220;49.808;9.968;2022-10-03T13:20:48;1.40;;;0.90;;
46505;SDS011;32220;49.808;9.968;2022-10-03T13:23:27;1.67;;;0.90;;
46505;SDS011;32220;49.808;9.968;2022-10-03T13:26:06;3.07;;;0.97;;
46505;SDS011;32220;49.808;9.968;2022-10-03T13:28:46;2.10;;;0.97;;
46505;SDS011;32220;49.808;9.968;2022-10-03T13:31:41;2.50;;;1.10;;
46505;SDS011;32220;49.808;9.968;2022-10-03T13:34:32;1.57;;;1.03;;
46505;SDS011;32220;49.808;9.968;2022-10-03T13:37:14;2.13;;;1.00;;
46505;SDS011;32220;49.808;9.968;2022-10-03T13:39:53;2.10;;;0.87;;
46505;SDS011;32220;49.808;9.968;2022-10-03T13:42:29;3.13;;;1.03;;
46505;SDS011;32220;49.808;9.968;2022-10-03T13:45:06;2.73;;;1.23;;
46505;SDS011;32220;49.808;9.968;2022-10-03T13:47:42;2.87;;;1.50;;
46505;SDS011;32220;49.808;9.968;2022-10-03T13:50:13;2.00;;;0.90;;
46505;SDS011;32220;49.808;9.968;2022-10-03T13:52:45;2.43;;;0.90;;
46505;SDS011;32220;49.808;9.968;2022-10-03T13:58:30;2.77;;;1.17;;
46505;SDS011;32220;49.808;9.968;2022-10-03T14:01:17;6.47;;;1.10;;
46505;SDS011;32220;49.808;9.968;2022-10-03T14:07:06;2.77;;;1.00;;
46505;SDS011;32220;49.808;9.968;2022-10-03T14:09:43;2.17;;;0.90;;
46505;SDS011;32220;49.808;9.968;2022-10-03T14:12:25;2.73;;;1.00;;
46505;SDS011;32220;49.808;9.968;2022-10-03T14:15:11;1.40;;;0.73;;
46505;SDS011;32220;49.808;9.968;2022-10-03T14:17:54;2.73;;;1.47;;
46505;SDS011;32220;49.808;9.968;2022-10-03T14:20:34;2.30;;;1.27;;
46505;SDS011;32220;49.808;9.968;2022-10-03T14:23:25;2.53;;;0.97;;
46505;SDS011;32220;49.808;9.968;2022-10-03T14:25:59;1.73;;;0.80;;
46505;SDS011;32220;49.808;9.968;2022-10-03T14:28:35;4.17;;;1.00;;
46505;SDS011;32220;49.808;9.968;2022-10-03T14:31:11;2.53;;;1.13;;
46505;SDS011;32220;49.808;9.968;2022-10-03T14:33:44;3.17;;;1.00;;
46505;SDS011;32220;49.808;9.968;2022-10-03T14:36:28;1.30;;;0.80;;
46505;SDS011;32220;49.808;9.968;2022-10-03T14:39:05;1.23;;;1.10;;
46505;SDS011;32220;49.808;9.968;2022-10-03T14:41:48;1.50;;;1.00;;
46505;SDS011;32220;49.808;9.968;2022-10-03T14:44:45;1.10;;;0.80;;
46505;SDS011;32220;49.808;9.968;2022-10-03T14:47:19;2.87;;;1.13;;
46505;SDS011;32220;49.808;9.968;2022-10-03T14:49:49;2.50;;;1.10;;
46505;SDS011;32220;49.808;9.968;2022-10-03T14:52:23;3.00;;;1.20;;
46505;SDS011;32220;49.808;9.968;2022-10-03T14:54:56;2.37;;;1.40;;
46505;SDS011;32220;49.808;9.968;2022-10-03T14:57:33;4.53;;;1.10;;
46505;SDS011;32220;49.808;9.968;2022-10-03T15:00:05;4.43;;;1.30;;
46505;SDS011;32220;49.808;9.968;2022-10-03T15:02:34;1.70;;;0.87;;
46505;SDS011;32220;49.808;9.968;2022-10-03T15:05:06;2.00;;;0.97;;
46505;SDS011;32220;49.808;9.968;2022-10-03T15:07:40;2.17;;;0.83;;
46505;SDS011;32220;49.808;9.968;2022-10-03T15:10:11;2.03;;;1.00;;
46505;SDS011;32220;49.808;9.968;2022-10-03T15:12:43;1.50;;;0.90;;
46505;SDS011;32220;49.808;9.968;2022-10-03T15:15:17;1.20;;;0.80;;
46505;SDS011;32220;49.808;9.968;2022-10-03T15:17:50;3.00;;;1.20;;
46505;SDS011;32220;49.808;9.968;2022-10-03T15:20:22;2.47;;;0.97;;
46505;SDS011;32220;49.808;9.968;2022-10-03T15:22:54;1.37;;;1.10;;
46505;SDS011;32220;49.808;9.968;2022-10-03T15:25:26;1.93;;;0.97;;
46505;SDS011;32220;49.808;9.968;2022-10-03T15:28:01;2.83;;;1.03;;
46505;SDS011;32220;49.808;9.968;2022-10-03T15:30:36;2.30;;;1.03;;
46505;SDS011;32220;49.808;9.968;2022-10-03T15:33:15;2.63;;;1.60;;
46505;SDS011;32220;49.808;9.968;2022-10-03T15:35:47;2.13;;;1.43;;
46505;SDS011;32220;49.808;9.968;2022-10-03T15:38:21;2.83;;;1.53;;
46505;SDS011;32220;49.808;9.968;2022-10-03T15:40:51;2.33;;;1.40;;
46505;SDS011;32220;49.808;9.968;2022-10-03T15:43:33;3.17;;;2.30;;
46505;SDS011;32220;49.808;9.968;2022-10-03T15:46:11;2.30;;;1.70;;
46505;SDS011;32220;49.808;9.968;2022-10-03T15:48:41;2.73;;;1.87;;
46505;SDS011;32220;49.808;9.968;2022-10-03T15:51:14;4.00;;;1.70;;
46505;SDS011;32220;49.808;9.968;2022-10-03T15:53:45;2.63;;;1.30;;
46505;SDS011;32220;49.808;9.968;2022-10-03T15:56:15;2.10;;;1.47;;
46505;SDS011;32220;49.808;9.968;2022-10-03T15:58:50;3.90;;;1.50;;
46505;SDS011;32220;49.808;9.968;2022-10-03T16:01:24;4.07;;;1.53;;
46505;SDS011;32220;49.808;9.968;2022-10-03T16:03:54;2.93;;;1.50;;
46505;SDS011;32220;49.808;9.968;2022-10-03T16:06:28;1.90;;;1.30;;
46505;SDS011;32220;49.808;9.968;2022-10-03T16:09:01;3.73;;;1.50;;
46505;SDS011;32220;49.808;9.968;2022-10-03T16:11:36;2.50;;;1.70;;
46505;SDS011;32220;49.808;9.968;2022-10-03T16:14:15;2.33;;;1.20;;
46505;SDS011;32220;49.808;9.968;2022-10-03T16:16:52;2.43;;;1.97;;
46505;SDS011;32220;49.808;9.968;2022-10-03T16:19:24;4.53;;;1.40;;
46505;SDS011;32220;49.808;9.968;2022-10-03T16:22:00;3.00;;;1.83;;
46505;SDS011;32220;49.808;9.968;2022-10-03T16:24:40;3.10;;;1.50;;
46505;SDS011;32220;49.808;9.968;2022-10-03T16:27:11;3.73;;;1.90;;
46505;SDS011;32220;49.808;9.968;2022-10-03T16:29:43;1.97;;;1.40;;
46505;SDS011;32220;49.808;9.968;2022-10-03T16:32:20;4.07;;;1.50;;
46505;SDS011;32220;49.808;9.968;2022-10-03T16:34:51;4.00;;;1.70;;
46505;SDS011;32220;49.808;9.968;2022-10-03T16:37:20;4.13;;;1.47;;
46505;SDS011;32220;49.808;9.968;2022-10-03T16:39:52;3.70;;;1.47;;
46505;SDS011;32220;49.808;9.968;2022-10-03T16:42:24;3.47;;;1.60;;
46505;SDS011;32220;49.808;9.968;2022-10-03T16:44:56;2.87;;;1.70;;
46505;SDS011;32220;49.808;9.968;2022-10-03T16:47:30;2.70;;;1.73;;
46505;SDS011;32220;49.808;9.968;2022-10-03T16:50:02;3.70;;;1.57;;
46505;SDS011;32220;49.808;9.968;2022-10-03T16:52:56;5.17;;;1.90;;
46505;SDS011;32220;49.808;9.968;2022-10-03T16:55:27;3.63;;;2.17;;
46505;SDS011;32220;49.808;9.968;2022-10-03T16:58:00;2.17;;;1.70;;
46505;SDS011;32220;49.808;9.968;2022-10-03T17:00:37;3.70;;;2.10;;
46505;SDS011;32220;49.808;9.968;2022-10-03T17:03:16;3.10;;;1.97;;
46505;SDS011;32220;49.808;9.968;2022-10-03T17:05:47;1.70;;;1.60;;
46505;SDS011;32220;49.808;9.968;2022-10-03T17:08:19;2.47;;;1.60;;
46505;SDS011;32220;49.808;9.968;2022-10-03T17:10:52;2.70;;;1.63;;
46505;SDS011;32220;49.808;9.968;2022-10-03T17:13:22;3.97;;;2.00;;
46505;SDS011;32220;49.808;9.968;2022-10-03T17:15:56;2.83;;;1.93;;
46505;SDS011;32220;49.808;9.968;2022-10-03T17:18:32;2.43;;;1.53;;
46505;SDS011;32220;49.808;9.968;2022-10-03T17:21:07;2.00;;;1.80;;
46505;SDS011;32220;49.808;9.968;2022-10-03T17:23:48;3.33;;;1.90;;
46505;SDS011;32220;49.808;9.968;2022-10-03T17:26:24;3.80;;;2.10;;
46505;SDS011;32220;49.808;9.968;2022-10-03T17:29:01;2.07;;;1.87;;
46505;SDS011;32220;49.808;9.968;2022-10-03T17:31:37;2.53;;;1.90;;
46505;SDS011;32220;49.808;9.968;2022-10-03T17:34:12;4.37;;;2.30;;
46505;SDS011;32220;49.808;9.968;2022-10-03T17:36:55;1.83;;;1.70;;
46505;SDS011;32220;49.808;9.968;2022-10-03T17:39:44;4.10;;;2.00;;
46505;SDS011;32220;49.808;9.968;2022-10-03T17:42:26;1.97;;;1.67;;
46505;SDS011;32220;49.808;9.968;2022-10-03T17:44:58;3.27;;;2.07;;
46505;SDS011;32220;49.808;9.968;2022-10-03T17:47:40;2.47;;;1.80;;
46505;SDS011;32220;49.808;9.968;2022-10-03T17:50:18;3.63;;;1.83;;
46505;SDS011;32220;49.808;9.968;2022-10-03T17:52:53;3.07;;;2.00;;
46505;SDS011;32220;49.808;9.968;2022-10-03T17:55:22;2.47;;;2.00;;
46505;SDS011;32220;49.808;9.968;2022-10-03T17:57:54;2.53;;;1.90;;
46505;SDS011;32220;49.808;9.968;2022-10-03T18:00:26;6.87;;;3.30;;
46505;SDS011;32220;49.808;9.968;2022-10-03T18:02:59;5.47;;;3.27;;
46505;SDS011;32220;49.808;9.968;2022-10-03T18:05:35;5.83;;;3.23;;
46505;SDS011;32220;49.808;9.968;2022-10-03T18:08:10;4.00;;;2.80;;
46505;SDS011;32220;49.808;9.968;2022-10-03T18:10:41;4.40;;;2.43;;
46505;SDS011;32220;49.808;9.968;2022-10-03T18:13:14;4.47;;;2.50;;
46505;SDS011;32220;49.808;9.968;2022-10-03T18:15:59;3.47;;;2.57;;
46505;SDS011;32220;49.808;9.968;2022-10-03T18:18:42;4.17;;;2.43;;
46505;SDS011;32220;49.808;9.968;2022-10-03T18:21:25;3.40;;;2.17;;
46505;SDS011;32220;49.808;9.968;2022-10-03T18:24:11;3.27;;;2.47;;
46505;SDS011;32220;49.808;9.968;2022-10-03T18:26:52;4.37;;;2.30;;
46505;SDS011;32220;49.808;9.968;2022-10-03T18:29:31;3.90;;;2.47;;
46505;SDS011;32220;49.808;9.968;2022-10-03T18:32:09;2.83;;;2.57;;
46505;SDS011;32220;49.808;9.968;2022-10-03T18:34:41;5.83;;;3.13;;
46505;SDS011;32220;49.808;9.968;2022-10-03T18:40:16;3.53;;;2.97;;
46505;SDS011;32220;49.808;9.968;2022-10-03T18:42:47;5.43;;;2.50;;
46505;SDS011;32220;49.808;9.968;2022-10-03T18:45:16;3.93;;;2.80;;
46505;SDS011;32220;49.808;9.968;2022-10-03T18:47:49;4.27;;;2.60;;
46505;SDS011;32220;49.808;9.968;2022-10-03T18:50:19;4.53;;;2.30;;
46505;SDS011;32220;49.808;9.968;2022-10-03T18:52:51;4.20;;;2.70;;
46505;SDS011;32220;49.808;9.968;2022-10-03T18:55:24;3.77;;;2.67;;
46505;SDS011;32220;49.808;9.968;2022-10-03T18:57:56;4.00;;;2.20;;
46505;SDS011;32220;49.808;9.968;2022-10-03T19:00:31;4.30;;;2.67;;
46505;SDS011;32220;49.808;9.968;2022-10-03T19:03:08;4.33;;;3.37;;
46505;SDS011;32220;49.808;9.968;2022-10-03T19:05:41;2.80;;;2.60;;
46505;SDS011;32220;49.808;9.968;2022-10-03T19:08:15;4.17;;;2.80;;
46505;SDS011;32220;49.808;9.968;2022-10-03T19:10:48;3.33;;;3.03;;
46505;SDS011;32220;49.808;9.968;2022-10-03T19:13:23;3.20;;;2.73;;
46505;SDS011;32220;49.808;9.968;2022-10-03T19:16:11;2.63;;;2.30;;
46505;SDS011;32220;49.808;9.968;2022-10-03T19:18:43;4.10;;;2.57;;
46505;SDS011;32220;49.808;9.968;2022-10-03T19:21:22;4.23;;;2.80;;
46505;SDS011;32220;49.808;9.968;2022-10-03T19:23:51;2.80;;;2.60;;
46505;SDS011;32220;49.808;9.968;2022-10-03T19:26:29;2.80;;;2.40;;
46505;SDS011;32220;49.808;9.968;2022-10-03T19:29:00;3.13;;;2.50;;
46505;SDS011;32220;49.808;9.968;2022-10-03T19:31:34;3.53;;;3.23;;
46505;SDS011;32220;49.808;9.968;2022-10-03T19:34:06;7.57;;;3.73;;
46505;SDS011;32220;49.808;9.968;2022-10-03T19:36:41;5.40;;;3.40;;
46505;SDS011;32220;49.808;9.968;2022-10-03T19:39:10;3.30;;;2.90;;
46505;SDS011;32220;49.808;9.968;2022-10-03T19:41:43;5.77;;;2.80;;
46505;SDS011;32220;49.808;9.968;2022-10-03T19:44:17;3.40;;;2.60;;
46505;SDS011;32220;49.808;9.968;2022-10-03T19:47:02;3.60;;;2.77;;
46505;SDS011;32220;49.808;9.968;2022-10-03T19:49:42;5.47;;;3.03;;
46505;SDS011;32220;49.808;9.968;2022-10-03T19:52:18;5.73;;;3.27;;
46505;SDS011;32220;49.808;9.968;2022-10-03T19:54:51;3.90;;;2.87;;
46505;SDS011;32220;49.808;9.968;2022-10-03T19:57:25;3.73;;;3.10;;
46505;SDS011;32220;49.808;9.968;2022-10-03T19:59:57;4.10;;;2.93;;
46505;SDS011;32220;49.808;9.968;2022-10-03T20:02:27;4.53;;;3.57;;
46505;SDS011;32220;49.808;9.968;2022-10-03T20:05:16;3.70;;;2.80;;
46505;SDS011;32220;49.808;9.968;2022-10-03T20:07:46;4.40;;;3.27;;
46505;SDS011;32220;49.808;9.968;2022-10-03T20:13:15;5.33;;;4.00;;
46505;SDS011;32220;49.808;9.968;2022-10-03T20:15:43;3.80;;;3.33;;
46505;SDS011;32220;49.808;9.968;2022-10-03T20:18:16;5.43;;;4.40;;
46505;SDS011;32220;49.808;9.968;2022-10-03T20:20:48;4.30;;;3.60;;
46505;SDS011;32220;49.808;9.968;2022-10-03T20:23:20;5.83;;;4.63;;
46505;SDS011;32220;49.808;9.968;2022-10-03T20:25:51;4.70;;;3.90;;
46505;SDS011;32220;49.808;9.968;2022-10-03T20:28:25;6.40;;;4.37;;
46505;SDS011;32220;49.808;9.968;2022-10-03T20:31:05;5.70;;;4.27;;
46505;SDS011;32220;49.808;9.968;2022-10-03T20:33:34;7.43;;;4.90;;
46505;SDS011;32220;49.808;9.968;2022-10-03T20:36:04;5.53;;;4.13;;
46505;SDS011;32220;49.808;9.968;2022-10-03T20:38:43;5.73;;;4.77;;
46505;SDS011;32220;49.808;9.968;2022-10-03T20:41:26;6.80;;;4.93;;
46505;SDS011;32220;49.808;9.968;2022-10-03T20:44:05;7.87;;;4.60;;
46505;SDS011;32220;49.808;9.968;2022-10-03T20:46:40;7.03;;;4.97;;
46505;SDS011;32220;49.808;9.968;2022-10-03T20:49:14;4.90;;;4.03;;
46505;SDS011;32220;49.808;9.968;2022-10-03T20:51:59;8.53;;;5.67;;
46505;SDS011;32220;49.808;9.968;2022-10-03T20:54:32;6.70;;;4.80;;
46505;SDS011;32220;49.808;9.968;2022-10-03T20:57:04;6.13;;;5.20;;
46505;SDS011;32220;49.808;9.968;2022-10-03T20:59:42;7.17;;;5.10;;
46505;SDS011;32220;49.808;9.968;2022-10-03T21:02:14;7.60;;;4.77;;
46505;SDS011;32220;49.808;9.968;2022-10-03T21:04:51;5.20;;;4.40;;
46505;SDS011;32220;49.808;9.968;2022-10-03T21:07:25;6.67;;;4.80;;
46505;SDS011;32220;49.808;9.968;2022-10-03T21:10:00;5.10;;;4.60;;
46505;SDS011;32220;49.808;9.968;2022-10-03T21:12:35;9.07;;;5.17;;
46505;SDS011;32220;49.808;9.968;2022-10-03T21:15:11;4.77;;;4.13;;
46505;SDS011;32220;49.808;9.968;2022-10-03T21:17:47;7.77;;;4.17;;
46505;SDS011;32220;49.808;9.968;2022-10-03T21:20:17;8.77;;;5.63;;
46505;SDS011;32220;49.808;9.968;2022-10-03T21:22:49;6.33;;;4.60;;
46505;SDS011;32220;49.808;9.968;2022-10-03T21:25:21;7.03;;;5.57;;
46505;SDS011;32220;49.808;9.968;2022-10-03T21:27:55;8.67;;;4.93;;
46505;SDS011;32220;49.808;9.968;2022-10-03T21:30:32;5.10;;;4.17;;
46505;SDS011;32220;49.808;9.968;2022-10-03T21:33:14;6.07;;;4.23;;
46505;SDS011;32220;49.808;9.968;2022-10-03T21:35:46;4.47;;;4.03;;
46505;SDS011;32220;49.808;9.968;2022-10-03T21:38:18;4.40;;;4.00;;
46505;SDS011;32220;49.808;9.968;2022-10-03T21:41:05;4.77;;;4.17;;
46505;SDS011;32220;49.808;9.968;2022-10-03T21:43:47;4.77;;;4.10;;
46505;SDS011;32220;49.808;9.968;2022-10-03T21:46:23;4.63;;;3.80;;
46505;SDS011;32220;49.808;9.968;2022-10-03T21:49:02;5.07;;;4.13;;
46505;SDS011;32220;49.808;9.968;2022-10-03T21:51:57;6.37;;;4.00;;
46505;SDS011;32220;49.808;9.968;2022-10-03T21:54:34;4.70;;;3.47;;
46505;SDS011;32220;49.808;9.968;2022-10-03T21:57:08;5.37;;;3.77;;
46505;SDS011;32220;49.808;9.968;2022-10-03T21:59:51;4.97;;;3.90;;
46505;SDS011;32220;49.808;9.968;2022-10-03T22:02:34;4.87;;;3.80;;
46505;SDS011;32220;49.808;9.968;2022-10-03T22:05:14;5.20;;;3.87;;
46505;SDS011;32220;49.808;9.968;2022-10-03T22:07:48;6.43;;;4.07;;
46505;SDS011;32220;49.808;9.968;2022-10-03T22:10:17;4.53;;;4.03;;
46505;SDS011;32220;49.808;9.968;2022-10-03T22:12:48;5.37;;;3.93;;
46505;SDS011;32220;49.808;9.968;2022-10-03T22:15:19;6.37;;;3.87;;
46505;SDS011;32220;49.808;9.968;2022-10-03T22:17:55;6.30;;;4.30;;
46505;SDS011;32220;49.808;9.968;2022-10-03T22:20:27;4.60;;;3.50;;
46505;SDS011;32220;49.808;9.968;2022-10-03T22:23:00;5.17;;;3.33;;
46505;SDS011;32220;49.808;9.968;2022-10-03T22:25:40;5.77;;;3.70;;
46505;SDS011;32220;49.808;9.968;2022-10-03T22:28:21;4.47;;;3.53;;
46505;SDS011;32220;49.808;9.968;2022-10-03T22:30:59;7.27;;;4.00;;
46505;SDS011;32220;49.808;9.968;2022-10-03T22:33:39;4.97;;;4.10;;
46505;SDS011;32220;49.808;9.968;2022-10-03T22:36:17;6.27;;;4.40;;
46505;SDS011;32220;49.808;9.968;2022-10-03T22:38:45;4.83;;;3.77;;
46505;SDS011;32220;49.808;9.968;2022-10-03T22:41:18;6.30;;;4.00;;
46505;SDS011;32220;49.808;9.968;2022-10-03T22:43:48;5.30;;;3.93;;
46505;SDS011;32220;49.808;9.968;2022-10-03T22:46:20;4.67;;;4.00;;
46505;SDS011;32220;49.808;9.968;2022-10-03T22:48:54;4.37;;;3.67;;
46505;SDS011;32220;49.808;9.968;2022-10-03T22:51:28;5.73;;;3.97;;
46505;SDS011;32220;49.808;9.968;2022-10-03T22:53:58;5.27;;;3.80;;
46505;SDS011;32220;49.808;9.968;2022-10-03T22:56:39;4.33;;;3.43;;
46505;SDS011;32220;49.808;9.968;2022-10-03T22:59:11;5.27;;;3.77;;
46505;SDS011;32220;49.808;9.968;2022-10-03T23:01:44;5.37;;;4.00;;
46505;SDS011;32220;49.808;9.968;2022-10-03T23:04:20;5.60;;;3.97;;
46505;SDS011;32220;49.808;9.968;2022-10-03T23:07:11;4.60;;;3.57;;
46505;SDS011;32220;49.808;9.968;2022-10-03T23:10:01;4.67;;;3.63;;
46505;SDS011;32220;49.808;9.968;2022-10-03T23:12:38;5.10;;;3.87;;
46505;SDS011;32220;49.808;9.968;2022-10-03T23:15:11;5.27;;;3.67;;
46505;SDS011;32220;49.808;9.968;2022-10-03T23:17:58;4.93;;;4.43;;
46505;SDS011;32220;49.808;9.968;2022-10-03T23:20:47;4.77;;;3.53;;
46505;SDS011;32220;49.808;9.968;2022-10-03T23:23:29;5.27;;;3.73;;
46505;SDS011;32220;49.808;9.968;2022-10-03T23:26:08;4.37;;;3.87;;
46505;SDS011;32220;49.808;9.968;2022-10-03T23:28:58;6.23;;;4.13;;
46505;SDS011;32220;49.808;9.968;2022-10-03T23:31:47;5.17;;;4.20;;
46505;SDS011;32220;49.808;9.968;2022-10-03T23:37:35;5.27;;;3.30;;
46505;SDS011;32220;49.808;9.968;2022-10-03T23:40:12;3.87;;;3.17;;
46505;SDS011;32220;49.808;9.968;2022-10-03T23:43:17;4.83;;;3.40;;
46505;SDS011;32220;49.808;9.968;2022-10-03T23:45:51;4.60;;;3.80;;
46505;SDS011;32220;49.808;9.968;2022-10-03T23:48:22;5.77;;;4.00;;
46505;SDS011;32220;49.808;9.968;2022-10-03T23:50:53;4.83;;;3.37;;
46505;SDS011;32220;49.808;9.968;2022-10-03T23:53:27;3.57;;;3.27;;
46505;SDS011;32220;49.808;9.968;2022-10-03T23:55:57;4.83;;;3.40;;
46505;SDS011;32220;49.808;9.968;2022-10-03T23:58:27;4.10;;;3.70;;
